Time;durP1;ratioP1;P1;durP2;ratioP2;P2;SDS_P1;SDS_P2;PMS_P1;PMS_P2;Temp;Humidity;BMP_temperature;BMP_pressure;BME280_temperature;BME280_humidity;BME280_pressure;Samples;Min_cycle;Max_cycle;Signal;HPM_P1;HPM_P2
2020/12/14 00:01:21;;;;;;;8.93;4.85;;;;;;;4.07;74.77;98487.75;5106153;28;20052;-68
2020/12/14 00:03:48;;;;;;;9.90;5.28;;;;;;;4.06;75.04;98480.88;5104747;28;20044;-68
2020/12/14 00:06:15;;;;;;;19.73;10.13;;;;;;;4.06;74.66;98478.28;5104828;28;20093;-68
2020/12/14 00:08:41;;;;;;;21.52;9.90;;;;;;;3.98;74.55;98473.81;5108229;28;20048;-68
2020/12/14 00:11:09;;;;;;;17.67;8.82;;;;;;;3.90;74.76;98472.00;5108992;28;20108;-67
2020/12/14 00:13:36;;;;;;;14.07;7.60;;;;;;;3.90;75.25;98463.34;5107515;28;20044;-69
2020/12/14 00:16:07;;;;;;;12.75;6.53;;;;;;;3.89;74.75;98446.00;5108312;28;20108;-68
2020/12/14 00:18:35;;;;;;;13.43;6.88;;;;;;;3.89;74.89;98446.84;5107798;28;20048;-68
2020/12/14 00:21:01;;;;;;;12.45;6.82;;;;;;;3.91;74.98;98446.66;5107907;28;20047;-69
2020/12/14 00:23:28;;;;;;;8.85;5.38;;;;;;;3.94;74.61;98446.34;5107041;28;20070;-68
2020/12/14 00:25:55;;;;;;;7.95;5.60;;;;;;;3.83;74.46;98454.47;5108058;28;20044;-68
2020/12/14 00:28:22;;;;;;;9.85;5.47;;;;;;;3.69;74.85;98472.41;5107975;28;20059;-68
2020/12/14 00:30:49;;;;;;;6.38;4.22;;;;;;;3.68;75.48;98486.47;5107964;28;20036;-68
2020/12/14 00:33:16;;;;;;;9.55;4.60;;;;;;;3.79;75.64;98485.34;5105832;28;20048;-68
2020/12/14 00:35:43;;;;;;;10.73;5.43;;;;;;;3.93;75.28;98486.56;5106584;28;20417;-68
2020/12/14 00:38:10;;;;;;;5.85;4.00;;;;;;;3.97;75.03;98498.34;5105963;28;20040;-68
2020/12/14 00:40:36;;;;;;;7.50;4.93;;;;;;;3.94;74.86;98503.88;5109617;28;20039;-69
2020/12/14 00:43:03;;;;;;;8.00;4.60;;;;;;;3.89;74.84;98500.94;5106163;28;20512;-68
2020/12/14 00:45:30;;;;;;;6.50;4.63;;;;;;;3.94;74.63;98490.81;5110199;28;20043;-69
2020/12/14 00:47:56;;;;;;;10.02;5.03;;;;;;;4.06;74.36;98481.69;5108419;28;20036;-69
2020/12/14 00:50:23;;;;;;;6.78;4.50;;;;;;;4.06;74.49;98484.31;5108702;28;20133;-69
2020/12/14 00:52:50;;;;;;;8.40;5.07;;;;;;;4.11;74.40;98486.44;5113825;28;20048;-69
2020/12/14 00:55:17;;;;;;;12.38;5.78;;;;;;;4.15;74.33;98487.78;5108242;28;20078;-68
2020/12/14 00:57:44;;;;;;;9.35;5.70;;;;;;;4.12;73.96;98491.53;5107071;28;20040;-69
2020/12/14 01:00:11;;;;;;;8.75;5.43;;;;;;;3.96;73.63;98491.50;5103513;28;20044;-70
2020/12/14 01:02:37;;;;;;;7.68;4.80;;;;;;;3.77;74.12;98491.72;5102210;28;20104;-69
2020/12/14 01:05:04;;;;;;;9.00;5.30;;;;;;;3.72;74.54;98486.97;5100830;28;20138;-69
2020/12/14 01:07:31;;;;;;;9.70;4.72;;;;;;;3.73;74.79;98480.75;5101309;28;20040;-70
2020/12/14 01:09:59;;;;;;;10.95;5.30;;;;;;;3.72;74.74;98473.91;5103020;28;20040;-69
2020/12/14 01:12:25;;;;;;;9.70;4.90;;;;;;;3.71;74.84;98467.00;5102902;28;20148;-68
2020/12/14 01:14:52;;;;;;;11.00;4.68;;;;;;;3.72;74.91;98479.94;5103231;28;20067;-69
2020/12/14 01:17:19;;;;;;;7.55;4.32;;;;;;;3.82;74.76;98484.22;5104176;28;20122;-69
2020/12/14 01:19:46;;;;;;;6.22;4.10;;;;;;;3.83;74.61;98488.47;5103329;28;20047;-69
2020/12/14 01:22:12;;;;;;;11.82;4.30;;;;;;;3.89;74.79;98486.06;5102466;28;20040;-69
2020/12/14 01:24:39;;;;;;;7.53;3.80;;;;;;;3.90;74.48;98492.91;5104737;28;20055;-70
2020/12/14 01:27:07;;;;;;;7.75;4.15;;;;;;;3.89;74.43;98493.91;5106304;28;20044;-69
2020/12/14 01:29:39;;;;;;;9.70;4.05;;;;;;;3.96;74.26;98492.31;5107331;28;20052;-70
2020/12/14 01:32:06;;;;;;;7.65;4.13;;;;;;;4.01;74.18;98483.97;5107273;28;20050;-70
2020/12/14 01:34:33;;;;;;;7.28;3.20;;;;;;;3.96;74.02;98491.50;5105821;28;20141;-69
2020/12/14 01:36:59;;;;;;;5.32;3.10;;;;;;;3.96;73.98;98494.91;5107499;28;20096;-70
2020/12/14 01:39:26;;;;;;;5.20;3.25;;;;;;;3.97;73.65;98495.72;5107181;28;20075;-68
2020/12/14 01:41:53;;;;;;;8.52;3.65;;;;;;;3.91;73.64;98494.53;5107514;28;20078;-69
2020/12/14 01:44:21;;;;;;;4.72;3.05;;;;;;;3.85;73.53;98489.16;5105775;28;20040;-70
2020/12/14 01:46:48;;;;;;;8.70;3.10;;;;;;;3.77;73.64;98481.28;5104030;28;20044;-70
2020/12/14 01:49:15;;;;;;;8.07;3.17;;;;;;;3.65;73.49;98488.56;5105292;28;20119;-69
2020/12/14 01:51:42;;;;;;;6.93;3.03;;;;;;;3.57;73.86;98473.66;5105385;28;20059;-70
2020/12/14 01:54:17;;;;;;;5.10;3.35;;;;;;;3.46;73.79;98466.91;5104142;28;20055;-70
2020/12/14 01:56:44;;;;;;;6.60;3.35;;;;;;;3.37;73.85;98469.63;5100548;28;20131;-70
2020/12/14 01:59:11;;;;;;;8.50;3.75;;;;;;;3.30;74.13;98472.03;5100239;28;20044;-70
2020/12/14 02:01:38;;;;;;;4.35;3.08;;;;;;;3.26;74.07;98464.66;5101457;28;20036;-70
2020/12/14 02:04:05;;;;;;;7.75;4.00;;;;;;;3.24;74.71;98472.66;5100195;28;20044;-71
2020/12/14 02:06:32;;;;;;;7.72;4.07;;;;;;;3.29;74.67;98472.19;5100772;28;20123;-70
2020/12/14 02:08:59;;;;;;;8.32;4.40;;;;;;;3.28;74.84;98470.56;5102188;28;20046;-70
2020/12/14 02:11:26;;;;;;;9.35;4.50;;;;;;;3.37;74.72;98470.44;5103218;28;20055;-70
2020/12/14 02:13:52;;;;;;;5.50;3.78;;;;;;;3.29;74.87;98474.81;5103996;28;20040;-70
2020/12/14 02:16:19;;;;;;;8.27;4.55;;;;;;;3.38;74.66;98464.25;5102582;28;20497;-70
2020/12/14 02:18:47;;;;;;;5.55;3.72;;;;;;;3.47;74.91;98472.97;5099648;28;20052;-70
2020/12/14 02:21:15;;;;;;;8.30;3.85;;;;;;;3.57;74.77;98470.22;5104003;28;20047;-70
2020/12/14 02:23:42;;;;;;;7.95;3.80;;;;;;;3.66;74.72;98457.03;5106838;28;20115;-70
2020/12/14 02:26:10;;;;;;;7.80;3.72;;;;;;;3.67;74.03;98448.22;5108000;28;20051;-70
2020/12/14 02:28:38;;;;;;;8.88;4.13;;;;;;;3.58;73.73;98446.53;5105025;28;20055;-70
2020/12/14 02:31:04;;;;;;;8.02;4.05;;;;;;;3.47;74.31;98449.44;5105579;28;20048;-70
2020/12/14 02:33:31;;;;;;;5.68;3.80;;;;;;;3.60;74.66;98457.66;5105616;28;20123;-69
2020/12/14 02:35:58;;;;;;;4.75;3.33;;;;;;;3.66;74.22;98451.00;5104246;28;20070;-70
2020/12/14 02:38:25;;;;;;;8.65;3.50;;;;;;;3.65;73.88;98449.34;5102494;28;20042;-69
2020/12/14 02:40:51;;;;;;;4.57;3.60;;;;;;;3.64;74.25;98451.16;5093115;28;20040;-70
2020/12/14 02:43:19;;;;;;;6.85;3.22;;;;;;;3.66;73.89;98456.22;5092913;28;20044;-69
2020/12/14 02:45:46;;;;;;;5.70;3.63;;;;;;;3.56;73.62;98451.13;5092987;28;20120;-70
2020/12/14 02:48:12;;;;;;;9.15;3.60;;;;;;;3.48;73.95;98448.47;5091230;28;20051;-69
2020/12/14 02:50:39;;;;;;;4.70;3.28;;;;;;;3.44;74.23;98445.34;5092804;28;20059;-68
2020/12/14 02:53:06;;;;;;;5.82;3.25;;;;;;;3.50;74.60;98438.66;5092788;28;20040;-69
2020/12/14 02:55:33;;;;;;;5.47;3.50;;;;;;;3.53;74.28;98442.75;5092432;28;20048;-69
2020/12/14 02:57:59;;;;;;;4.95;3.03;;;;;;;3.59;74.42;98432.50;5092681;28;20046;-68
2020/12/14 03:00:27;;;;;;;4.57;2.83;;;;;;;3.69;74.40;98427.16;5092594;28;20090;-70
2020/12/14 03:02:54;;;;;;;6.85;3.30;;;;;;;3.79;74.09;98416.56;5092813;28;20487;-68
2020/12/14 03:05:21;;;;;;;5.55;2.90;;;;;;;3.80;74.00;98423.44;5093001;28;20055;-69
2020/12/14 03:07:48;;;;;;;4.60;2.72;;;;;;;3.82;73.84;98430.13;5092204;28;20048;-68
2020/12/14 03:10:15;;;;;;;5.80;2.90;;;;;;;3.92;73.85;98433.44;5091324;28;20456;-67
2020/12/14 03:12:42;;;;;;;5.72;3.38;;;;;;;4.00;74.10;98437.03;5092628;28;20036;-67
2020/12/14 03:15:08;;;;;;;4.97;2.55;;;;;;;4.07;73.74;98443.28;5092334;28;20048;-68
2020/12/14 03:17:36;;;;;;;7.72;3.13;;;;;;;4.13;73.43;98437.41;5092489;28;20055;-69
2020/12/14 03:20:03;;;;;;;5.93;3.13;;;;;;;4.14;73.25;98431.19;5091770;28;20054;-68
2020/12/14 03:22:29;;;;;;;5.45;3.28;;;;;;;4.21;73.40;98426.97;5091845;28;20051;-67
2020/12/14 03:24:56;;;;;;;3.33;3.00;;;;;;;4.26;72.88;98424.69;5091824;28;20058;-67
2020/12/14 03:27:23;;;;;;;11.05;3.72;;;;;;;4.22;72.60;98423.38;5091841;28;20055;-67
2020/12/14 03:29:50;;;;;;;5.97;3.08;;;;;;;4.20;72.67;98420.06;5091983;28;20444;-67
2020/12/14 03:32:17;;;;;;;5.13;3.10;;;;;;;4.17;73.11;98430.88;5091892;28;20075;-68
2020/12/14 03:34:44;;;;;;;3.35;2.38;;;;;;;4.10;73.26;98435.94;5091457;28;20397;-67
2020/12/14 03:37:11;;;;;;;7.15;3.20;;;;;;;4.12;73.67;98446.22;5091803;28;20050;-67
2020/12/14 03:39:38;;;;;;;6.45;3.45;;;;;;;4.25;73.58;98437.94;5091584;28;20048;-67
2020/12/14 03:42:05;;;;;;;5.85;2.95;;;;;;;4.33;73.70;98435.34;5091722;28;20036;-67
2020/12/14 03:44:31;;;;;;;3.20;2.55;;;;;;;4.42;73.22;98432.56;5091882;28;20048;-68
2020/12/14 03:46:58;;;;;;;6.03;2.85;;;;;;;4.55;73.14;98436.47;5091564;28;20123;-68
2020/12/14 03:49:25;;;;;;;5.90;2.90;;;;;;;4.48;72.55;98433.69;5091561;28;20124;-70
2020/12/14 03:51:55;;;;;;;6.57;2.78;;;;;;;4.46;72.59;98440.91;5091554;28;20055;-68
2020/12/14 03:54:21;;;;;;;6.60;3.88;;;;;;;4.37;72.81;98431.41;5090041;28;20040;-69
2020/12/14 03:56:48;;;;;;;5.63;3.20;;;;;;;4.35;72.94;98433.34;5090298;28;20055;-68
2020/12/14 03:59:16;;;;;;;6.15;3.20;;;;;;;4.33;73.29;98436.16;5091547;28;20070;-69
2020/12/14 04:01:44;;;;;;;10.30;3.35;;;;;;;4.37;73.42;98431.41;5095229;28;20048;-68
2020/12/14 04:04:11;;;;;;;4.03;2.83;;;;;;;4.38;73.59;98435.66;5095045;28;20093;-70
2020/12/14 04:06:38;;;;;;;8.80;3.42;;;;;;;4.42;73.31;98423.88;5095257;28;20040;-68
2020/12/14 04:09:05;;;;;;;6.22;3.78;;;;;;;4.36;73.52;98424.53;5095188;28;20055;-68
2020/12/14 04:11:32;;;;;;;7.53;3.20;;;;;;;4.34;73.19;98427.31;5095057;28;20040;-68
2020/12/14 04:13:59;;;;;;;5.25;3.30;;;;;;;4.28;73.35;98427.13;5094622;28;20040;-68
2020/12/14 04:16:26;;;;;;;7.03;3.50;;;;;;;4.24;73.95;98434.47;5094903;28;20097;-70
2020/12/14 04:18:52;;;;;;;5.57;2.65;;;;;;;4.37;73.90;98434.03;5095028;28;20044;-68
2020/12/14 04:21:19;;;;;;;6.47;3.25;;;;;;;4.52;73.86;98427.16;5094803;28;20044;-68
2020/12/14 04:23:46;;;;;;;6.25;3.25;;;;;;;4.57;73.41;98416.19;5094473;28;20391;-69
2020/12/14 04:26:15;;;;;;;6.57;3.50;;;;;;;4.61;73.56;98420.09;5093373;28;20040;-68
2020/12/14 04:28:41;;;;;;;6.78;3.50;;;;;;;4.66;73.14;98430.94;5094560;28;20107;-68
2020/12/14 04:31:09;;;;;;;5.82;3.33;;;;;;;4.68;73.16;98429.75;5094663;28;20043;-69
2020/12/14 04:33:37;;;;;;;5.40;3.05;;;;;;;4.68;73.21;98429.75;5093244;28;20052;-68
2020/12/14 04:36:06;;;;;;;8.05;3.58;;;;;;;4.75;72.83;98426.50;5094514;28;20047;-69
2020/12/14 04:38:32;;;;;;;6.75;3.33;;;;;;;4.75;72.92;98424.69;5094514;28;20493;-69
2020/12/14 04:41:02;;;;;;;8.90;3.17;;;;;;;4.81;72.99;98424.03;5094592;28;20093;-68
2020/12/14 04:43:30;;;;;;;4.43;3.10;;;;;;;4.80;72.80;98409.31;5094421;28;20044;-68
2020/12/14 04:46:02;;;;;;;6.22;3.08;;;;;;;4.74;72.78;98417.84;5093266;28;20055;-69
2020/12/14 04:48:30;;;;;;;7.53;3.97;;;;;;;4.72;72.68;98417.16;5094742;28;20122;-68
2020/12/14 04:50:58;;;;;;;8.07;3.63;;;;;;;4.62;73.11;98419.97;5094406;28;20075;-68
2020/12/14 04:53:25;;;;;;;5.90;3.35;;;;;;;4.71;73.63;98415.53;5093938;28;20054;-72
2020/12/14 04:55:52;;;;;;;4.97;2.85;;;;;;;4.74;72.91;98415.22;5094168;28;20482;-68
2020/12/14 04:58:18;;;;;;;6.40;3.28;;;;;;;4.77;73.29;98419.28;5094242;28;20505;-69
2020/12/14 05:00:46;;;;;;;17.10;6.68;;;;;;;4.85;73.09;98403.56;5094027;28;20044;-68
2020/12/14 05:03:14;;;;;;;5.13;3.50;;;;;;;4.79;72.91;98410.28;5094019;28;20056;-69
2020/12/14 05:05:40;;;;;;;5.03;3.13;;;;;;;4.82;73.15;98412.59;5093726;28;20048;-68
2020/12/14 05:08:07;;;;;;;4.47;3.47;;;;;;;4.79;72.87;98412.91;5093733;28;20485;-68
2020/12/14 05:10:34;;;;;;;4.25;3.05;;;;;;;4.81;73.42;98423.22;5094152;28;20489;-69
2020/12/14 05:13:10;;;;;;;7.10;4.22;;;;;;;4.94;73.40;98423.56;5093949;28;20044;-68
2020/12/14 05:15:40;;;;;;;7.40;3.20;;;;;;;5.03;73.36;98421.72;5093507;28;20064;-68
2020/12/14 05:18:12;;;;;;;5.55;3.50;;;;;;;5.14;73.01;98424.81;5093740;28;20421;-68
2020/12/14 05:20:40;;;;;;;5.07;3.28;;;;;;;5.16;72.73;98428.09;5093695;28;20046;-69
2020/12/14 05:23:08;;;;;;;4.97;3.03;;;;;;;5.21;73.15;98424.94;5093840;28;20055;-68
2020/12/14 05:25:35;;;;;;;7.30;3.70;;;;;;;5.18;72.64;98422.66;5093283;28;20046;-68
2020/12/14 05:28:12;;;;;;;7.10;3.30;;;;;;;5.14;72.77;98422.22;5093617;28;20043;-68
2020/12/14 05:30:42;;;;;;;8.52;4.28;;;;;;;5.11;73.12;98426.97;5092255;28;20048;-68
2020/12/14 05:33:11;;;;;;;6.53;3.35;;;;;;;5.09;73.00;98429.72;5092082;28;20076;-68
2020/12/14 05:35:39;;;;;;;5.85;3.42;;;;;;;5.02;73.31;98427.94;5093204;28;20043;-69
2020/12/14 05:38:13;;;;;;;6.60;3.50;;;;;;;5.02;73.32;98434.03;5091846;28;20119;-69
2020/12/14 05:40:41;;;;;;;5.90;3.40;;;;;;;5.01;73.58;98423.69;5092304;28;20055;-69
2020/12/14 05:43:09;;;;;;;12.02;7.35;;;;;;;5.06;73.26;98424.00;5093333;28;20048;-70
2020/12/14 05:45:36;;;;;;;8.10;4.38;;;;;;;5.04;73.42;98418.13;5093055;28;20051;-69
2020/12/14 05:48:03;;;;;;;12.73;5.13;;;;;;;5.05;73.21;98420.56;5092987;28;20044;-68
2020/12/14 05:50:30;;;;;;;7.00;4.20;;;;;;;5.05;73.62;98425.81;5093266;28;20044;-70
2020/12/14 05:53:06;;;;;;;3.72;3.30;;;;;;;5.12;73.56;98425.97;5093074;28;20039;-68
2020/12/14 05:55:35;;;;;;;4.93;3.20;;;;;;;5.18;73.88;98430.53;5091406;28;20063;-68
2020/12/14 05:58:03;;;;;;;8.23;3.70;;;;;;;5.27;73.62;98426.09;5092752;28;20062;-68
2020/12/14 06:00:31;;;;;;;5.70;3.20;;;;;;;5.31;73.19;98428.22;5092897;28;20431;-68
2020/12/14 06:02:57;;;;;;;11.70;4.25;;;;;;;5.21;73.05;98424.94;5091561;28;20048;-68
2020/12/14 06:05:26;;;;;;;7.95;3.35;;;;;;;5.30;73.34;98423.94;5092416;28;20044;-70
2020/12/14 06:08:01;;;;;;;6.78;3.88;;;;;;;5.34;73.47;98420.00;5091584;28;20048;-68
2020/12/14 06:10:32;;;;;;;7.75;4.18;;;;;;;5.36;73.39;98425.91;5092694;28;20047;-68
2020/12/14 06:13:07;;;;;;;6.65;3.58;;;;;;;5.35;73.39;98420.84;5092656;28;20040;-69
2020/12/14 06:15:34;;;;;;;6.90;3.55;;;;;;;5.36;73.16;98407.56;5092444;28;20058;-68
2020/12/14 06:18:02;;;;;;;6.07;3.75;;;;;;;5.34;73.50;98422.63;5092570;28;20036;-69
2020/12/14 06:20:31;;;;;;;7.10;4.65;;;;;;;5.38;73.51;98418.69;5091233;28;20139;-68
2020/12/14 06:23:03;;;;;;;9.15;4.82;;;;;;;5.44;73.51;98425.06;5091820;28;20044;-68
2020/12/14 06:25:31;;;;;;;8.07;4.65;;;;;;;5.40;73.15;98423.78;5092374;28;20044;-68
2020/12/14 06:28:27;;;;;;;12.02;5.20;;;;;;;5.39;73.08;98422.94;5092323;28;20036;-68
2020/12/14 06:30:55;;;;;;;10.63;5.22;;;;;;;5.35;73.50;98428.72;5091149;28;20056;-68
2020/12/14 06:33:32;;;;;;;10.35;5.03;;;;;;;5.36;73.48;98432.97;5092084;28;20063;-69
2020/12/14 06:36:15;;;;;;;9.15;4.60;;;;;;;5.34;73.40;98430.47;5090967;28;20052;-68
2020/12/14 06:38:44;;;;;;;7.53;4.72;;;;;;;5.41;73.62;98431.44;5092625;28;20046;-68
2020/12/14 06:41:13;;;;;;;7.10;4.57;;;;;;;5.46;73.77;98434.38;5092180;28;20404;-69
2020/12/14 06:43:41;;;;;;;10.95;4.95;;;;;;;5.54;73.96;98435.34;5091932;28;20044;-69
2020/12/14 06:46:08;;;;;;;7.70;5.10;;;;;;;5.62;73.55;98430.88;5092359;28;20044;-68
2020/12/14 06:48:38;;;;;;;7.40;4.70;;;;;;;5.64;73.77;98435.97;5093062;28;20046;-69
2020/12/14 06:51:06;;;;;;;6.53;4.00;;;;;;;5.72;73.35;98444.63;5104041;28;20046;-72
2020/12/14 06:53:45;;;;;;;8.65;4.68;;;;;;;5.77;73.38;98441.50;5115484;28;20051;-72
2020/12/14 06:56:14;;;;;;;6.35;4.60;;;;;;;5.77;73.06;98444.13;5098632;28;20044;-69
2020/12/14 06:58:44;;;;;;;11.10;4.82;;;;;;;5.72;73.15;98436.75;5093006;28;20056;-70
2020/12/14 07:01:33;;;;;;;10.35;4.95;;;;;;;5.73;73.30;98448.06;5092525;28;20398;-68
2020/12/14 07:04:02;;;;;;;8.82;4.50;;;;;;;5.69;73.36;98441.53;5091863;28;20097;-69
2020/12/14 07:06:28;;;;;;;9.35;3.58;;;;;;;5.75;72.88;98447.88;5092184;28;20044;-68
2020/12/14 07:09:17;;;;;;;;;;;;;;;5.69;73.12;98450.22;5092404;28;20036;-69
2020/12/14 07:11:45;;;;;;;5.45;3.28;;;;;;;5.76;73.14;98449.53;5092188;28;19930;-69
2020/12/14 07:14:27;;;;;;;9.02;3.70;;;;;;;5.89;72.90;98465.53;5091902;28;20481;-69
2020/12/14 07:16:54;;;;;;;5.70;3.55;;;;;;;5.89;72.96;98468.97;5091975;28;20240;-69
2020/12/14 07:19:20;;;;;;;6.22;3.58;;;;;;;5.97;72.82;98467.34;5091969;28;20047;-69
2020/12/14 07:21:56;;;;;;;7.20;3.40;;;;;;;6.06;72.70;98471.56;5091949;28;20486;-69
2020/12/14 07:24:32;;;;;;;3.90;2.95;;;;;;;6.09;72.52;98468.59;5091940;28;20465;-69
2020/12/14 07:27:00;;;;;;;7.18;4.10;;;;;;;6.17;72.29;98464.13;5090945;28;20139;-69
2020/12/14 07:29:27;;;;;;;6.70;3.67;;;;;;;6.18;72.12;98468.38;5091927;28;20036;-68
2020/12/14 07:31:54;;;;;;;5.70;3.85;;;;;;;6.15;71.72;98467.91;5091915;28;20078;-69
2020/12/14 07:34:21;;;;;;;7.65;3.67;;;;;;;6.19;72.13;98464.75;5093476;28;20402;-69
2020/12/14 07:36:48;;;;;;;13.43;4.60;;;;;;;6.22;72.05;98466.22;5095639;28;20044;-68
2020/12/14 07:39:14;;;;;;;7.22;4.50;;;;;;;6.29;71.85;98467.19;5094163;28;20466;-69
2020/12/14 07:41:46;;;;;;;6.45;4.22;;;;;;;6.23;71.44;98469.66;5095609;28;20486;-69
2020/12/14 07:44:14;;;;;;;4.95;4.13;;;;;;;6.18;71.63;98473.63;5095171;28;20448;-68
2020/12/14 07:46:41;;;;;;;7.65;3.92;;;;;;;6.16;71.89;98473.00;5095286;28;20482;-69
2020/12/14 07:49:09;;;;;;;21.90;7.70;;;;;;;6.24;71.88;98482.59;5095323;28;20051;-68
2020/12/14 07:51:40;;;;;;;23.63;9.38;;;;;;;6.34;71.52;98482.41;5095341;28;20044;-69
2020/12/14 07:54:09;;;;;;;18.35;7.07;;;;;;;6.34;71.45;98480.59;5094944;28;20119;-68
2020/12/14 07:56:41;;;;;;;22.65;6.55;;;;;;;6.35;71.82;98484.84;5095212;28;20036;-68
2020/12/14 07:59:23;;;;;;;17.02;6.85;;;;;;;6.42;71.50;98482.34;5093863;28;20040;-68
2020/12/14 08:01:50;;;;;;;14.68;5.95;;;;;;;6.32;71.24;98484.38;5095194;28;20078;-68
2020/12/14 08:04:26;;;;;;;16.92;6.97;;;;;;;6.28;71.33;98491.78;5093347;28;20068;-68
2020/12/14 08:06:54;;;;;;;12.93;5.55;;;;;;;6.25;71.47;98492.13;5095038;28;20047;-68
2020/12/14 08:09:23;;;;;;;11.20;5.72;;;;;;;6.25;71.47;98497.38;5094684;28;20394;-68
2020/12/14 08:11:52;;;;;;;8.40;4.93;;;;;;;6.29;71.63;98501.31;5094939;28;20048;-68
2020/12/14 08:14:20;;;;;;;7.03;4.32;;;;;;;6.38;71.82;98488.94;5094538;28;20078;-68
2020/12/14 08:16:48;;;;;;;9.70;4.60;;;;;;;6.49;71.50;98487.72;5093520;28;20089;-68
2020/12/14 08:19:18;;;;;;;8.70;4.22;;;;;;;6.48;71.11;98489.53;5094751;28;20040;-68
2020/12/14 08:22:07;;;;;;;6.93;4.38;;;;;;;6.51;71.05;98497.06;5093716;28;20055;-68
2020/12/14 08:24:34;;;;;;;8.05;4.95;;;;;;;6.53;70.94;98502.97;5089813;28;20056;-68
2020/12/14 08:27:04;;;;;;;10.00;5.53;;;;;;;6.57;70.93;98503.41;5094723;28;20040;-68
2020/12/14 08:29:34;;;;;;;10.38;5.32;;;;;;;6.61;70.47;98497.66;5094569;28;20040;-69
2020/12/14 08:32:01;;;;;;;7.80;4.88;;;;;;;6.68;70.59;98505.66;5094869;28;20044;-68
2020/12/14 08:34:34;;;;;;;10.93;4.55;;;;;;;6.80;70.65;98501.63;5094118;28;20048;-68
2020/12/14 08:37:02;;;;;;;6.53;4.28;;;;;;;6.83;70.02;98495.22;5094784;28;20560;-68
2020/12/14 08:39:29;;;;;;;8.73;5.38;;;;;;;6.82;69.95;98491.75;5094488;28;20047;-68
2020/12/14 08:42:14;;;;;;;8.10;4.65;;;;;;;6.88;69.91;98496.31;5094366;28;20063;-69
2020/12/14 08:44:41;;;;;;;15.98;8.32;;;;;;;6.95;69.66;98499.88;5092013;28;20048;-68
2020/12/14 08:47:16;;;;;;;23.85;9.93;;;;;;;7.00;70.18;98504.59;5092981;28;20048;-68
2020/12/14 08:49:43;;;;;;;17.40;7.75;;;;;;;7.13;69.98;98501.34;5094220;28;20040;-68
2020/12/14 08:52:19;;;;;;;15.07;6.75;;;;;;;7.25;69.22;98494.66;5092935;28;20512;-68
2020/12/14 08:54:53;;;;;;;10.75;5.32;;;;;;;7.32;68.77;98502.69;5093707;28;20497;-68
2020/12/14 08:57:24;;;;;;;8.73;5.07;;;;;;;7.34;68.20;98504.09;5094524;28;20478;-68
2020/12/14 09:00:06;;;;;;;14.27;9.98;;;;;;;7.29;67.97;98500.41;5094231;28;20486;-69
2020/12/14 09:02:33;;;;;;;6.47;4.22;;;;;;;7.23;67.53;98499.31;5094010;28;20043;-68
2020/12/14 09:05:12;;;;;;;7.57;4.30;;;;;;;7.22;67.55;98494.22;5092610;28;20055;-68
2020/12/14 09:07:39;;;;;;;8.75;4.40;;;;;;;7.28;67.95;98504.84;5094003;28;20044;-68
2020/12/14 09:10:14;;;;;;;5.57;3.85;;;;;;;7.28;67.59;98504.84;5094014;28;20508;-68
2020/12/14 09:12:40;;;;;;;9.20;4.65;;;;;;;7.31;67.81;98509.75;5093778;28;20040;-68
2020/12/14 09:15:08;;;;;;;11.38;5.10;;;;;;;7.35;67.43;98500.50;5092174;28;20505;-68
2020/12/14 09:17:35;;;;;;;7.07;4.13;;;;;;;7.35;67.16;98508.41;5094116;28;20089;-68
2020/12/14 09:20:03;;;;;;;7.20;4.20;;;;;;;7.35;66.72;98511.03;5092328;28;20065;-69
2020/12/14 09:22:30;;;;;;;7.47;4.40;;;;;;;7.39;67.11;98493.91;5093698;28;20047;-68
2020/12/14 09:24:57;;;;;;;6.82;4.25;;;;;;;7.43;67.25;98507.50;5093221;28;20039;-69
2020/12/14 09:27:24;;;;;;;6.18;4.03;;;;;;;7.43;66.68;98503.06;5093657;28;20501;-68
2020/12/14 09:29:54;;;;;;;5.05;3.50;;;;;;;7.41;66.60;98509.47;5093510;28;20044;-69
2020/12/14 09:32:22;;;;;;;5.95;2.72;;;;;;;7.46;66.17;98501.88;5093835;28;20040;-69
2020/12/14 09:34:49;;;;;;;7.40;3.47;;;;;;;7.57;65.73;98504.06;5091609;28;20465;-68
2020/12/14 09:37:16;;;;;;;4.97;3.13;;;;;;;7.63;65.40;98503.34;5093305;28;20032;-68
2020/12/14 09:39:43;;;;;;;10.90;4.30;;;;;;;7.69;65.45;98499.97;5093225;28;20044;-68
2020/12/14 09:42:10;;;;;;;9.27;3.80;;;;;;;7.79;64.65;98506.78;5092232;28;20054;-68
2020/12/14 09:44:37;;;;;;;5.40;3.40;;;;;;;7.80;64.51;98500.53;5092406;28;20043;-68
2020/12/14 09:47:05;;;;;;;5.38;3.13;;;;;;;7.86;63.79;98505.88;5093439;28;20405;-68
2020/12/14 09:49:33;;;;;;;6.25;3.72;;;;;;;7.94;63.35;98504.97;5093141;28;20047;-68
2020/12/14 09:51:59;;;;;;;5.45;3.10;;;;;;;7.98;63.08;98506.22;5093192;28;20128;-68
2020/12/14 09:54:26;;;;;;;5.93;3.38;;;;;;;8.05;62.83;98501.88;5093001;28;20040;-68
2020/12/14 09:56:53;;;;;;;7.78;2.78;;;;;;;8.15;62.56;98505.03;5092287;28;20047;-69
2020/12/14 09:59:20;;;;;;;4.63;2.28;;;;;;;8.23;62.12;98512.00;5093115;28;20051;-69
2020/12/14 10:01:46;;;;;;;4.80;3.35;;;;;;;8.31;61.89;98509.25;5091734;28;20044;-68
2020/12/14 10:04:14;;;;;;;4.05;2.45;;;;;;;8.43;61.29;98505.19;5092925;28;20051;-68
2020/12/14 10:06:41;;;;;;;4.45;2.67;;;;;;;8.47;60.87;98505.63;5093206;28;20054;-68
2020/12/14 10:09:09;;;;;;;4.10;2.60;;;;;;;8.50;61.20;98510.53;5093239;28;20051;-69
2020/12/14 10:11:36;;;;;;;5.30;3.10;;;;;;;8.61;60.92;98507.41;5092973;28;20381;-68
2020/12/14 10:14:03;;;;;;;13.02;7.90;;;;;;;8.67;60.81;98508.47;5092723;28;20047;-68
2020/12/14 10:16:30;;;;;;;7.57;4.00;;;;;;;8.73;60.12;98509.53;5092692;28;20044;-68
2020/12/14 10:19:10;;;;;;;6.65;3.30;;;;;;;8.82;60.27;98508.44;5093188;28;20504;-68
2020/12/14 10:21:38;;;;;;;4.68;2.75;;;;;;;8.91;60.23;98505.47;5091513;28;20068;-69
2020/12/14 10:24:05;;;;;;;5.63;3.60;;;;;;;9.06;59.70;98505.41;5092462;28;20059;-69
2020/12/14 10:26:33;;;;;;;6.07;3.00;;;;;;;9.12;59.27;98501.19;5091558;28;20043;-68
2020/12/14 10:29:00;;;;;;;3.55;2.30;;;;;;;9.18;59.10;98495.97;5092508;28;20040;-68
2020/12/14 10:31:27;;;;;;;2.72;1.80;;;;;;;9.27;58.82;98498.47;5092556;28;20040;-68
2020/12/14 10:33:57;;;;;;;5.30;2.60;;;;;;;9.34;58.49;98497.47;5092242;28;20052;-68
2020/12/14 10:36:23;;;;;;;3.22;2.33;;;;;;;9.37;57.84;98496.28;5092752;28;20051;-68
2020/12/14 10:38:50;;;;;;;6.90;2.40;;;;;;;9.41;57.79;98498.34;5092662;28;20068;-69
2020/12/14 10:41:18;;;;;;;4.40;2.53;;;;;;;9.46;57.58;98489.03;5092587;28;20504;-69
2020/12/14 10:43:45;;;;;;;3.53;2.05;;;;;;;9.48;56.92;98479.94;5092307;28;20040;-68
2020/12/14 10:46:12;;;;;;;6.43;2.42;;;;;;;9.53;56.79;98476.72;5091203;28;20501;-69
2020/12/14 10:48:39;;;;;;;3.58;1.75;;;;;;;9.55;56.45;98472.88;5092686;28;20040;-68
2020/12/14 10:51:05;;;;;;;4.13;1.90;;;;;;;9.58;56.33;98475.13;5092627;28;20048;-68
2020/12/14 10:53:32;;;;;;;3.53;2.22;;;;;;;9.64;56.95;98477.00;5092519;28;20346;-68
2020/12/14 10:56:00;;;;;;;6.07;2.65;;;;;;;9.85;56.47;98481.38;5092621;28;20048;-68
2020/12/14 10:58:28;;;;;;;4.35;3.13;;;;;;;10.00;56.28;98488.31;5091615;28;20134;-68
2020/12/14 11:00:55;;;;;;;9.15;5.38;;;;;;;10.02;56.45;98483.69;5092784;28;20048;-70
2020/12/14 11:03:25;;;;;;;10.30;5.43;;;;;;;10.08;56.50;98480.22;5092913;28;20044;-70
2020/12/14 11:05:53;;;;;;;7.90;3.13;;;;;;;10.14;55.80;98482.91;5093768;28;20075;-70
2020/12/14 11:08:20;;;;;;;4.22;2.47;;;;;;;10.15;55.76;98487.19;5098454;28;20039;-70
2020/12/14 11:10:47;;;;;;;6.75;2.50;;;;;;;10.21;56.13;98487.41;5097231;28;20067;-71
2020/12/14 11:13:13;;;;;;;3.40;2.40;;;;;;;10.21;55.94;98477.66;5096933;28;20043;-71
2020/12/14 11:15:41;;;;;;;4.68;2.58;;;;;;;10.25;55.57;98476.28;5097530;28;20413;-71
2020/12/14 11:18:08;;;;;;;3.20;2.40;;;;;;;10.26;55.26;98474.44;5098597;28;20078;-70
2020/12/14 11:20:35;;;;;;;3.30;2.55;;;;;;;10.30;55.39;98478.31;5097241;28;20137;-70
2020/12/14 11:23:02;;;;;;;5.93;2.55;;;;;;;10.39;55.53;98471.84;5097764;28;20068;-70
2020/12/14 11:25:29;;;;;;;3.45;2.40;;;;;;;10.40;55.34;98460.25;5095832;28;20052;-71
2020/12/14 11:27:55;;;;;;;5.07;2.65;;;;;;;10.44;55.18;98466.78;5111800;28;20051;-71
2020/12/14 11:30:22;;;;;;;3.72;2.65;;;;;;;10.53;55.05;98457.66;5116493;28;20096;-71
2020/12/14 11:32:50;;;;;;;5.43;2.58;;;;;;;10.65;55.02;98449.94;5104363;28;20044;-70
2020/12/14 11:35:16;;;;;;;6.90;2.58;;;;;;;10.74;54.75;98454.03;5095867;28;20048;-70
2020/12/14 11:37:43;;;;;;;8.27;3.22;;;;;;;10.80;54.56;98447.91;5097416;28;20107;-70
2020/12/14 11:40:12;;;;;;;4.43;2.58;;;;;;;10.84;54.11;98443.03;5097032;28;20074;-70
2020/12/14 11:42:39;;;;;;;22.63;4.55;;;;;;;10.84;54.19;98441.22;5097118;28;20055;-71
2020/12/14 11:45:09;;;;;;;10.65;4.13;;;;;;;10.87;53.84;98430.22;5096603;28;20040;-70